createdAt,value
2022-08-28T00:23:42.380Z,13.73
2022-08-28T00:53:45.923Z,13.77
2022-08-28T01:23:49.281Z,13.80
2022-08-28T01:53:53.612Z,13.10
2022-08-28T02:23:57.093Z,14.90
2022-08-28T02:53:59.812Z,16.57
2022-08-28T03:24:03.207Z,20.37
2022-08-28T03:54:06.044Z,17.87
2022-08-28T04:24:09.951Z,20.40
2022-08-28T04:54:12.918Z,20.13
2022-08-28T05:24:16.509Z,18.67
2022-08-28T05:54:19.357Z,16.07
2022-08-28T06:24:23.680Z,16.87
2022-08-28T06:54:26.648Z,15.25
2022-08-28T07:24:30.007Z,14.00
2022-08-28T07:54:33.149Z,11.33
2022-08-28T08:24:38.042Z,11.90
2022-08-28T08:54:40.921Z,11.80
2022-08-28T09:24:44.861Z,12.13
2022-08-28T09:54:47.593Z,11.77
2022-08-28T10:24:51.686Z,10.50
2022-08-28T10:54:54.914Z,10.55
2022-08-28T11:25:03.305Z,11.33
2022-08-28T11:55:09.263Z,7.63
2022-08-28T12:25:13.866Z,6.97
2022-08-28T12:55:17.096Z,5.43
2022-08-28T13:25:22.285Z,4.43
2022-08-28T13:55:25.066Z,4.30
2022-08-28T14:25:30.793Z,3.90
2022-08-28T14:55:33.541Z,2.87
2022-08-28T15:25:37.480Z,2.80
2022-08-28T15:55:40.409Z,3.23
2022-08-28T16:25:44.369Z,2.23
2022-08-28T16:55:47.149Z,3.00
2022-08-28T17:25:50.697Z,2.80
2022-08-28T17:55:54.211Z,3.20
2022-08-28T18:25:57.672Z,4.20
2022-08-28T18:56:02.741Z,3.20
2022-08-28T19:26:08.080Z,4.90
2022-08-28T19:56:11.800Z,5.37
2022-08-28T20:26:15.268Z,5.50
2022-08-28T20:56:18.479Z,5.93
2022-08-28T21:26:21.559Z,5.33
2022-08-28T21:56:24.928Z,6.80
2022-08-28T22:26:28.356Z,5.67
2022-08-28T22:56:31.431Z,5.47
2022-08-28T23:26:34.510Z,5.60
2022-08-28T23:56:37.306Z,5.13
